Portada
METAR-TAF:

METAR-TAF

Aeroports :

Al-Kuwait, Kuwait

latitud: 29-13N, longitud: 047-59E, altitud: 55 m

Observació

L'informe es va fer fa 1 hora i 10 minuts, a les 01:00 UTC
Vent 14 kt del Nord/Nord-Oest
Temperatura 36°C
Humitat 16%
Pressió 996 hPa
Visibilitat 10 km o més
sense núvols per sota de 1500 mi sense presència de cumulonimbus.

METAR: OKBK 160100Z 34014KT CAVOK 36/06 Q0996 NOSIG

Hora: 05:10 (02:10 UTC)

Pronòstic

L'informe es va fer fa 3 hores i 25 minuts, a les 22:45 UTC
Pronòstic vàlid del 16 a les 00 UTC al 17 a les 06 UTC
Vent 12 kt del Nord/Nord-Oest amb ràfegues de 25 kt
Visibilitat: 7000 m
Cel clar
Temporalment
l' 16 a les 05 UTC al 16 a les 15 UTC
Visibilitat: 3000 m
torb alta de pols

TAF: OKBK 152245Z 1600/1706 33012G25KT 7000 SKC TEMPO 1605/1615 3000 BLDU

Observacions i pronòstics meteorològics de més de 4000 aeroports (METAR i TAF).

Les estacions disponibles són els punts grocs i vermells al mapa.

Posi el ratolí al punt desitjat per veure el nom de l'estació.

Feu clic per veure les observacions i els pronòstics meteorològics.

Per canviar el mapa: feu clic els botons verds amb una creu de color negre per apropar; al botó verd amb un guió per allunyar la imatge; o en les fletxes verdes per a mapes adjacents.


METAR-TAF: